sensor_id;sensor_type;location;lat;lon;timestamp;pressure;altitude;pressure_sealevel;temperature;humidity
19447;BME280;9862;49.462;11.054;2023-04-06T00:01:58;98378.50;;;7.30;66.23
19447;BME280;9862;49.462;11.054;2023-04-06T00:04:25;98373.75;;;7.25;66.51
19447;BME280;9862;49.462;11.054;2023-04-06T00:06:51;98371.25;;;7.24;66.76
19447;BME280;9862;49.462;11.054;2023-04-06T00:09:18;98368.59;;;7.24;67.55
19447;BME280;9862;49.462;11.054;2023-04-06T00:11:44;98363.03;;;7.18;67.90
19447;BME280;9862;49.462;11.054;2023-04-06T00:14:12;98365.88;;;7.17;67.82
19447;BME280;9862;49.462;11.054;2023-04-06T00:16:42;98365.38;;;7.13;68.76
19447;BME280;9862;49.462;11.054;2023-04-06T00:19:09;98360.91;;;7.14;69.15
19447;BME280;9862;49.462;11.054;2023-04-06T00:21:35;98363.22;;;7.17;70.00
19447;BME280;9862;49.462;11.054;2023-04-06T00:24:02;98360.56;;;7.17;69.61
19447;BME280;9862;49.462;11.054;2023-04-06T00:26:29;98363.03;;;7.18;68.79
19447;BME280;9862;49.462;11.054;2023-04-06T00:28:55;98360.91;;;7.14;68.74
19447;BME280;9862;49.462;11.054;2023-04-06T00:31:25;98362.59;;;7.15;70.50
19447;BME280;9862;49.462;11.054;2023-04-06T00:33:51;98366.69;;;7.17;70.72
19447;BME280;9862;49.462;11.054;2023-04-06T00:36:18;98362.59;;;7.15;71.70
19447;BME280;9862;49.462;11.054;2023-04-06T00:38:44;98356.81;;;7.11;71.85
19447;BME280;9862;49.462;11.054;2023-04-06T00:41:11;98360.81;;;7.07;73.25
19447;BME280;9862;49.462;11.054;2023-04-06T00:43:38;98357.34;;;7.07;73.65
19447;BME280;9862;49.462;11.054;2023-04-06T00:46:04;98362.28;;;7.10;73.42
19447;BME280;9862;49.462;11.054;2023-04-06T00:48:32;98351.44;;;7.05;73.42
19447;BME280;9862;49.462;11.054;2023-04-06T00:50:59;98348.09;;;7.03;74.09
19447;BME280;9862;49.462;11.054;2023-04-06T00:53:25;98343.19;;;7.00;74.24
19447;BME280;9862;49.462;11.054;2023-04-06T00:55:52;98350.47;;;6.98;74.07
19447;BME280;9862;49.462;11.054;2023-04-06T00:58:18;98336.88;;;7.01;74.26
19447;BME280;9862;49.462;11.054;2023-04-06T01:00:45;98353.78;;;7.00;74.34
19447;BME280;9862;49.462;11.054;2023-04-06T01:03:11;98346.53;;;6.94;73.58
19447;BME280;9862;49.462;11.054;2023-04-06T01:05:40;98342.06;;;6.94;73.64
19447;BME280;9862;49.462;11.054;2023-04-06T01:08:07;98340.22;;;6.95;74.15
19447;BME280;9862;49.462;11.054;2023-04-06T01:10:34;98341.41;;;6.92;73.88
19447;BME280;9862;49.462;11.054;2023-04-06T01:13:01;98340.97;;;6.88;74.07
19447;BME280;9862;49.462;11.054;2023-04-06T01:15:28;98343.78;;;6.87;74.15
19447;BME280;9862;49.462;11.054;2023-04-06T01:17:55;98339.31;;;6.87;73.69
19447;BME280;9862;49.462;11.054;2023-04-06T01:20:21;98344.50;;;6.81;73.56
19447;BME280;9862;49.462;11.054;2023-04-06T01:22:49;98348.31;;;6.78;74.02
19447;BME280;9862;49.462;11.054;2023-04-06T01:25:16;98344.03;;;6.77;74.16
19447;BME280;9862;49.462;11.054;2023-04-06T01:27:42;98336.72;;;6.79;73.38
19447;BME280;9862;49.462;11.054;2023-04-06T01:30:09;98338.75;;;6.77;73.43
19447;BME280;9862;49.462;11.054;2023-04-06T01:32:36;98336.91;;;6.78;72.64
19447;BME280;9862;49.462;11.054;2023-04-06T01:35:03;98336.09;;;6.77;73.52
19447;BME280;9862;49.462;11.054;2023-04-06T01:37:29;98329.16;;;6.76;73.15
19447;BME280;9862;49.462;11.054;2023-04-06T01:39:59;98331.13;;;6.74;73.24
19447;BME280;9862;49.462;11.054;2023-04-06T01:42:26;98331.50;;;6.71;73.13
19447;BME280;9862;49.462;11.054;2023-04-06T01:44:53;98325.56;;;6.69;74.31
19447;BME280;9862;49.462;11.054;2023-04-06T01:47:19;98334.50;;;6.68;74.68
19447;BME280;9862;49.462;11.054;2023-04-06T01:49:46;98319.78;;;6.66;74.90
19447;BME280;9862;49.462;11.054;2023-04-06T01:52:12;98330.03;;;6.69;74.03
19447;BME280;9862;49.462;11.054;2023-04-06T01:54:39;98323.94;;;6.68;73.56
19447;BME280;9862;49.462;11.054;2023-04-06T01:57:07;98328.03;;;6.71;74.39
19447;BME280;9862;49.462;11.054;2023-04-06T01:59:34;98319.47;;;6.69;72.93
19447;BME280;9862;49.462;11.054;2023-04-06T02:02:00;98315.03;;;6.61;74.69
19447;BME280;9862;49.462;11.054;2023-04-06T02:04:27;98319.69;;;6.59;75.98
19447;BME280;9862;49.462;11.054;2023-04-06T02:06:53;98323.97;;;6.60;77.01
19447;BME280;9862;49.462;11.054;2023-04-06T02:09:20;98320.69;;;6.58;75.41
19447;BME280;9862;49.462;11.054;2023-04-06T02:11:47;98325.31;;;6.56;76.05
19447;BME280;9862;49.462;11.054;2023-04-06T02:14:15;98323.03;;;6.53;76.01
19447;BME280;9862;49.462;11.054;2023-04-06T02:16:41;98320.56;;;6.51;75.86
19447;BME280;9862;49.462;11.054;2023-04-06T02:19:08;98323.56;;;6.48;75.67
19447;BME280;9862;49.462;11.054;2023-04-06T02:21:35;98324.72;;;6.46;75.92
19447;BME280;9862;49.462;11.054;2023-04-06T02:24:02;98321.56;;;6.50;74.87
19447;BME280;9862;49.462;11.054;2023-04-06T02:26:29;98314.81;;;6.48;74.80
19447;BME280;9862;49.462;11.054;2023-04-06T02:28:56;98314.59;;;6.57;71.89
19447;BME280;9862;49.462;11.054;2023-04-06T02:31:24;98322.97;;;6.61;73.60
19447;BME280;9862;49.462;11.054;2023-04-06T02:33:51;98314.28;;;6.52;73.32
19447;BME280;9862;49.462;11.054;2023-04-06T02:36:18;98322.38;;;6.51;74.17
19447;BME280;9862;49.462;11.054;2023-04-06T02:38:44;98311.81;;;6.51;73.62
19447;BME280;9862;49.462;11.054;2023-04-06T02:41:11;98315.81;;;6.47;74.00
19447;BME280;9862;49.462;11.054;2023-04-06T02:43:38;98314.16;;;6.46;72.82
19447;BME280;9862;49.462;11.054;2023-04-06T02:46:05;98324.63;;;6.39;73.80
19447;BME280;9862;49.462;11.054;2023-04-06T02:48:33;98324.63;;;6.39;74.60
19447;BME280;9862;49.462;11.054;2023-04-06T02:51:01;98322.47;;;6.35;74.64
19447;BME280;9862;49.462;11.054;2023-04-06T02:53:27;98319.19;;;6.32;75.25
19447;BME280;9862;49.462;11.054;2023-04-06T02:55:54;98317.38;;;6.33;75.10
19447;BME280;9862;49.462;11.054;2023-04-06T02:58:21;98308.25;;;6.36;75.66
19447;BME280;9862;49.462;11.054;2023-04-06T03:00:48;98317.31;;;6.41;74.64
19447;BME280;9862;49.462;11.054;2023-04-06T03:03:14;98316.31;;;6.42;74.14
19447;BME280;9862;49.462;11.054;2023-04-06T03:05:42;98318.16;;;6.42;74.32
19447;BME280;9862;49.462;11.054;2023-04-06T03:08:09;98317.19;;;6.35;74.57
19447;BME280;9862;49.462;11.054;2023-04-06T03:10:35;98323.19;;;6.28;75.33
19447;BME280;9862;49.462;11.054;2023-04-06T03:13:02;98322.88;;;6.23;75.69
19447;BME280;9862;49.462;11.054;2023-04-06T03:15:28;98325.03;;;6.28;74.68
19447;BME280;9862;49.462;11.054;2023-04-06T03:17:55;98316.25;;;6.27;75.28
19447;BME280;9862;49.462;11.054;2023-04-06T03:20:21;98325.03;;;6.28;75.51
19447;BME280;9862;49.462;11.054;2023-04-06T03:22:49;98321.69;;;6.26;75.92
19447;BME280;9862;49.462;11.054;2023-04-06T03:25:16;98315.25;;;6.28;75.26
19447;BME280;9862;49.462;11.054;2023-04-06T03:27:42;98317.91;;;6.28;75.49
19447;BME280;9862;49.462;11.054;2023-04-06T03:30:09;98321.19;;;6.30;72.53
19447;BME280;9862;49.462;11.054;2023-04-06T03:32:36;98325.53;;;6.23;74.23
19447;BME280;9862;49.462;11.054;2023-04-06T03:35:03;98325.53;;;6.23;74.33
19447;BME280;9862;49.462;11.054;2023-04-06T03:37:29;98326.88;;;6.19;75.24
19447;BME280;9862;49.462;11.054;2023-04-06T03:39:57;98322.41;;;6.20;75.19
19447;BME280;9862;49.462;11.054;2023-04-06T03:42:24;98327.16;;;6.24;74.20
19447;BME280;9862;49.462;11.054;2023-04-06T03:44:52;98325.53;;;6.23;74.72
19447;BME280;9862;49.462;11.054;2023-04-06T03:47:18;98324.25;;;6.19;75.32
19447;BME280;9862;49.462;11.054;2023-04-06T03:49:45;98330.44;;;6.26;75.06
19447;BME280;9862;49.462;11.054;2023-04-06T03:52:11;98331.66;;;6.16;75.36
19447;BME280;9862;49.462;11.054;2023-04-06T03:54:38;98323.19;;;6.28;73.83
19447;BME280;9862;49.462;11.054;2023-04-06T03:57:06;98330.44;;;6.26;73.98
19447;BME280;9862;49.462;11.054;2023-04-06T03:59:33;98332.66;;;6.15;75.48
19447;BME280;9862;49.462;11.054;2023-04-06T04:01:59;98330.22;;;6.05;76.83
19447;BME280;9862;49.462;11.054;2023-04-06T04:04:26;98339.34;;;6.02;78.21
19447;BME280;9862;49.462;11.054;2023-04-06T04:06:52;98337.34;;;6.05;78.75
19447;BME280;9862;49.462;11.054;2023-04-06T04:09:19;98331.22;;;6.04;78.52
19447;BME280;9862;49.462;11.054;2023-04-06T04:11:45;98337.16;;;6.06;78.88
19447;BME280;9862;49.462;11.054;2023-04-06T04:14:13;98330.06;;;6.07;77.49
19447;BME280;9862;49.462;11.054;2023-04-06T04:16:40;98342.63;;;6.05;77.83
19447;BME280;9862;49.462;11.054;2023-04-06T04:19:07;98337.50;;;6.03;77.93
19447;BME280;9862;49.462;11.054;2023-04-06T04:21:33;98335.47;;;6.13;75.58
19447;BME280;9862;49.462;11.054;2023-04-06T04:24:00;98343.13;;;6.08;77.32
19447;BME280;9862;49.462;11.054;2023-04-06T04:26:26;98337.16;;;6.06;77.45
19447;BME280;9862;49.462;11.054;2023-04-06T04:28:53;98334.81;;;6.19;74.66
19447;BME280;9862;49.462;11.054;2023-04-06T04:31:21;98337.66;;;6.10;74.56
19447;BME280;9862;49.462;11.054;2023-04-06T04:33:48;98341.22;;;5.78;75.43
19447;BME280;9862;49.462;11.054;2023-04-06T04:36:15;98337.84;;;5.53;77.08
19447;BME280;9862;49.462;11.054;2023-04-06T04:38:41;98350.22;;;5.44;78.69
19447;BME280;9862;49.462;11.054;2023-04-06T04:41:08;98340.47;;;5.53;79.90
19447;BME280;9862;49.462;11.054;2023-04-06T04:43:34;98340.00;;;5.41;78.98
19447;BME280;9862;49.462;11.054;2023-04-06T04:46:01;98343.28;;;5.43;82.83
19447;BME280;9862;49.462;11.054;2023-04-06T04:48:30;98349.69;;;5.49;80.05
19447;BME280;9862;49.462;11.054;2023-04-06T04:50:57;98345.91;;;5.51;77.51
19447;BME280;9862;49.462;11.054;2023-04-06T04:53:23;98345.09;;;5.51;79.73
19447;BME280;9862;49.462;11.054;2023-04-06T04:55:50;98348.69;;;5.66;79.89
19447;BME280;9862;49.462;11.054;2023-04-06T04:58:16;98345.56;;;5.62;80.19
19447;BME280;9862;49.462;11.054;2023-04-06T05:00:45;98346.16;;;5.81;76.15
19447;BME280;9862;49.462;11.054;2023-04-06T05:03:16;98342.41;;;5.67;77.19
19447;BME280;9862;49.462;11.054;2023-04-06T05:05:45;98353.03;;;5.51;79.84
19447;BME280;9862;49.462;11.054;2023-04-06T05:08:12;98349.56;;;5.50;82.71
19447;BME280;9862;49.462;11.054;2023-04-06T05:10:38;98356.78;;;5.64;80.46
19447;BME280;9862;49.462;11.054;2023-04-06T05:13:05;98352.47;;;5.71;79.64
19447;BME280;9862;49.462;11.054;2023-04-06T05:15:32;98359.69;;;5.78;81.60
19447;BME280;9862;49.462;11.054;2023-04-06T05:18:00;98354.91;;;5.81;82.00
19447;BME280;9862;49.462;11.054;2023-04-06T05:20:26;98347.63;;;5.83;81.32
19447;BME280;9862;49.462;11.054;2023-04-06T05:22:54;98352.41;;;5.88;81.76
19447;BME280;9862;49.462;11.054;2023-04-06T05:25:21;98344.47;;;5.96;82.06
19447;BME280;9862;49.462;11.054;2023-04-06T05:27:48;98354.38;;;6.02;81.64
19447;BME280;9862;49.462;11.054;2023-04-06T05:30:15;98355.66;;;6.06;81.33
19447;BME280;9862;49.462;11.054;2023-04-06T05:32:41;98349.22;;;6.09;81.38
19447;BME280;9862;49.462;11.054;2023-04-06T05:35:09;98359.59;;;6.18;80.90
19447;BME280;9862;49.462;11.054;2023-04-06T05:37:35;98355.94;;;6.19;80.42
19447;BME280;9862;49.462;11.054;2023-04-06T05:40:05;98354.94;;;6.20;80.67
19447;BME280;9862;49.462;11.054;2023-04-06T05:42:36;98355.06;;;6.27;81.04
19447;BME280;9862;49.462;11.054;2023-04-06T05:45:04;98361.84;;;6.29;80.54
19447;BME280;9862;49.462;11.054;2023-04-06T05:47:30;98367.22;;;6.36;80.17
19447;BME280;9862;49.462;11.054;2023-04-06T05:49:57;98362.44;;;6.40;80.10
19447;BME280;9862;49.462;11.054;2023-04-06T05:52:24;98367.19;;;6.44;79.82
19447;BME280;9862;49.462;11.054;2023-04-06T05:54:50;98363.88;;;6.50;79.60
19447;BME280;9862;49.462;11.054;2023-04-06T05:57:18;98357.03;;;6.56;79.72
19447;BME280;9862;49.462;11.054;2023-04-06T05:59:45;98367.28;;;6.59;79.65
19447;BME280;9862;49.462;11.054;2023-04-06T06:02:11;98371.84;;;6.65;79.29
19447;BME280;9862;49.462;11.054;2023-04-06T06:04:39;98363.41;;;6.70;80.43
19447;BME280;9862;49.462;11.054;2023-04-06T06:07:05;98362.19;;;6.80;81.13
19447;BME280;9862;49.462;11.054;2023-04-06T06:09:32;98375.63;;;6.94;80.40
19447;BME280;9862;49.462;11.054;2023-04-06T06:11:59;98366.34;;;6.98;79.01
19447;BME280;9862;49.462;11.054;2023-04-06T06:14:27;98367.38;;;6.97;78.90
19447;BME280;9862;49.462;11.054;2023-04-06T06:16:54;98371.09;;;7.02;78.90
19447;BME280;9862;49.462;11.054;2023-04-06T06:19:21;98367.94;;;7.07;78.99
19447;BME280;9862;49.462;11.054;2023-04-06T06:21:47;98369.84;;;7.13;78.09
19447;BME280;9862;49.462;11.054;2023-04-06T06:24:14;98378.47;;;7.15;77.90
19447;BME280;9862;49.462;11.054;2023-04-06T06:26:40;98369.34;;;7.17;76.41
19447;BME280;9862;49.462;11.054;2023-04-06T06:29:08;98371.16;;;7.17;76.33
19447;BME280;9862;49.462;11.054;2023-04-06T06:31:36;98372.44;;;7.21;75.96
19447;BME280;9862;49.462;11.054;2023-04-06T06:34:03;98378.31;;;7.31;76.05
19447;BME280;9862;49.462;11.054;2023-04-06T06:36:29;98375.97;;;7.36;76.10
19447;BME280;9862;49.462;11.054;2023-04-06T06:38:56;98368.28;;;7.41;76.19
19447;BME280;9862;49.462;11.054;2023-04-06T06:41:23;98375.50;;;7.47;75.98
19447;BME280;9862;49.462;11.054;2023-04-06T06:43:50;98370.47;;;7.53;75.35
19447;BME280;9862;49.462;11.054;2023-04-06T06:46:17;98369.13;;;7.57;75.56
19447;BME280;9862;49.462;11.054;2023-04-06T06:48:45;98367.75;;;7.61;73.98
19447;BME280;9862;49.462;11.054;2023-04-06T06:51:11;98374.69;;;7.62;72.77
19447;BME280;9862;49.462;11.054;2023-04-06T06:53:38;98378.66;;;7.66;72.38
19447;BME280;9862;49.462;11.054;2023-04-06T06:56:05;98372.78;;;7.70;71.79
19447;BME280;9862;49.462;11.054;2023-04-06T06:58:31;98368.59;;;7.76;72.16
19447;BME280;9862;49.462;11.054;2023-04-06T07:00:58;98374.00;;;7.83;71.44
19447;BME280;9862;49.462;11.054;2023-04-06T07:03:25;98377.56;;;7.90;69.50
19447;BME280;9862;49.462;11.054;2023-04-06T07:05:53;98362.47;;;7.90;70.20
19447;BME280;9862;49.462;11.054;2023-04-06T07:08:20;98366.84;;;7.98;70.21
19447;BME280;9862;49.462;11.054;2023-04-06T07:10:47;98366.31;;;8.02;69.89
19447;BME280;9862;49.462;11.054;2023-04-06T07:13:13;98368.69;;;8.12;67.91
19447;BME280;9862;49.462;11.054;2023-04-06T07:15:44;98367.59;;;8.07;68.38
19447;BME280;9862;49.462;11.054;2023-04-06T07:18:10;98376.84;;;8.11;69.69
19447;BME280;9862;49.462;11.054;2023-04-06T07:20:37;98373.03;;;8.20;68.39
19447;BME280;9862;49.462;11.054;2023-04-06T07:23:05;98375.16;;;8.24;67.82
19447;BME280;9862;49.462;11.054;2023-04-06T07:25:32;98369.94;;;8.31;67.75
19447;BME280;9862;49.462;11.054;2023-04-06T07:27:59;98369.94;;;8.46;65.37
19447;BME280;9862;49.462;11.054;2023-04-06T07:30:26;98374.16;;;8.40;64.72
19447;BME280;9862;49.462;11.054;2023-04-06T07:32:54;98382.66;;;8.50;63.14
19447;BME280;9862;49.462;11.054;2023-04-06T07:35:21;98373.78;;;8.43;62.80
19447;BME280;9862;49.462;11.054;2023-04-06T07:37:48;98379.34;;;8.48;63.66
19447;BME280;9862;49.462;11.054;2023-04-06T07:40:16;98378.78;;;8.53;65.28
19447;BME280;9862;49.462;11.054;2023-04-06T07:42:43;98374.84;;;8.64;64.08
19447;BME280;9862;49.462;11.054;2023-04-06T07:45:10;98372.75;;;8.59;60.55
19447;BME280;9862;49.462;11.054;2023-04-06T07:47:37;98369.13;;;8.67;60.58
19447;BME280;9862;49.462;11.054;2023-04-06T07:50:04;98379.84;;;8.73;60.18
19447;BME280;9862;49.462;11.054;2023-04-06T07:52:31;98363.47;;;9.12;100.00
19447;BME280;9862;49.462;11.054;2023-04-06T07:54:57;98363.31;;;10.11;100.00
19447;BME280;9862;49.462;11.054;2023-04-06T07:57:25;98358.91;;;10.99;100.00
19447;BME280;9862;49.462;11.054;2023-04-06T07:59:52;98358.09;;;11.65;100.00
19447;BME280;9862;49.462;11.054;2023-04-06T08:02:18;98350.41;;;12.21;100.00
19447;BME280;9862;49.462;11.054;2023-04-06T08:04:45;98352.28;;;12.59;67.82
19447;BME280;9862;49.462;11.054;2023-04-06T08:07:12;98348.19;;;12.95;76.38
19447;BME280;9862;49.462;11.054;2023-04-06T08:09:38;98347.00;;;13.15;72.51
19447;BME280;9862;49.462;11.054;2023-04-06T08:12:05;98341.72;;;13.59;74.19
19447;BME280;9862;49.462;11.054;2023-04-06T08:14:33;98337.50;;;13.88;69.71
19447;BME280;9862;49.462;11.054;2023-04-06T08:17:00;98340.81;;;13.90;51.35
19447;BME280;9862;49.462;11.054;2023-04-06T08:19:26;98341.19;;;13.93;48.07
19447;BME280;9862;49.462;11.054;2023-04-06T08:21:53;98351.72;;;13.45;45.60
19447;BME280;9862;49.462;11.054;2023-04-06T08:24:19;98356.72;;;12.72;45.78
19447;BME280;9862;49.462;11.054;2023-04-06T08:26:46;98366.91;;;11.92;45.15
19447;BME280;9862;49.462;11.054;2023-04-06T08:29:13;98371.75;;;10.69;47.23
19447;BME280;9862;49.462;11.054;2023-04-06T08:31:41;98368.84;;;10.10;49.82
19447;BME280;9862;49.462;11.054;2023-04-06T08:34:07;98374.19;;;9.82;50.66
19447;BME280;9862;49.462;11.054;2023-04-06T08:36:34;98366.91;;;9.62;51.80
19447;BME280;9862;49.462;11.054;2023-04-06T08:39:00;98362.63;;;9.61;51.84
19447;BME280;9862;49.462;11.054;2023-04-06T08:41:27;98364.84;;;9.58;51.92
19447;BME280;9862;49.462;11.054;2023-04-06T08:43:57;98373.81;;;9.29;53.19
19447;BME280;9862;49.462;11.054;2023-04-06T08:46:24;98364.97;;;9.22;53.73
19447;BME280;9862;49.462;11.054;2023-04-06T08:48:56;98362.22;;;9.08;55.06
19447;BME280;9862;49.462;11.054;2023-04-06T08:51:23;98366.88;;;9.28;57.06
19447;BME280;9862;49.462;11.054;2023-04-06T08:53:50;98367.38;;;9.38;56.17
19447;BME280;9862;49.462;11.054;2023-04-06T08:56:19;98363.63;;;9.60;52.70
19447;BME280;9862;49.462;11.054;2023-04-06T08:58:47;98352.75;;;9.55;52.34
19447;BME280;9862;49.462;11.054;2023-04-06T09:01:17;98363.03;;;9.65;53.79
19447;BME280;9862;49.462;11.054;2023-04-06T09:03:45;98366.56;;;9.72;51.43
19447;BME280;9862;49.462;11.054;2023-04-06T09:06:14;98361.38;;;9.57;52.35
19447;BME280;9862;49.462;11.054;2023-04-06T09:08:41;98356.28;;;9.62;52.73
19447;BME280;9862;49.462;11.054;2023-04-06T09:11:08;98359.19;;;9.67;52.69
19447;BME280;9862;49.462;11.054;2023-04-06T09:13:44;98359.06;;;9.75;53.18
19447;BME280;9862;49.462;11.054;2023-04-06T09:16:11;98350.59;;;10.00;50.14
19447;BME280;9862;49.462;11.054;2023-04-06T09:18:38;98354.44;;;9.56;50.65
19447;BME280;9862;49.462;11.054;2023-04-06T09:21:06;98343.94;;;9.48;51.35
19447;BME280;9862;49.462;11.054;2023-04-06T09:23:34;98350.50;;;9.52;51.31
19447;BME280;9862;49.462;11.054;2023-04-06T09:26:09;98348.47;;;9.54;49.50
19447;BME280;9862;49.462;11.054;2023-04-06T09:28:43;98346.63;;;9.55;49.78
19447;BME280;9862;49.462;11.054;2023-04-06T09:31:10;98349.25;;;9.76;49.24
19447;BME280;9862;49.462;11.054;2023-04-06T09:33:38;98347.78;;;9.73;49.06
19447;BME280;9862;49.462;11.054;2023-04-06T09:36:06;98338.41;;;9.78;49.54
19447;BME280;9862;49.462;11.054;2023-04-06T09:38:32;98342.16;;;9.90;48.53
19447;BME280;9862;49.462;11.054;2023-04-06T09:41:00;98331.41;;;9.70;47.45
19447;BME280;9862;49.462;11.054;2023-04-06T09:43:27;98338.84;;;9.53;48.85
19447;BME280;9862;49.462;11.054;2023-04-06T09:45:55;98331.75;;;9.60;49.88
19447;BME280;9862;49.462;11.054;2023-04-06T09:48:22;98326.97;;;9.84;49.24
19447;BME280;9862;49.462;11.054;2023-04-06T09:50:55;98330.94;;;10.01;48.68
19447;BME280;9862;49.462;11.054;2023-04-06T09:53:26;98323.84;;;10.08;48.42
19447;BME280;9862;49.462;11.054;2023-04-06T09:55:57;98328.13;;;10.09;48.52
19447;BME280;9862;49.462;11.054;2023-04-06T09:58:33;98323.88;;;10.21;48.55
19447;BME280;9862;49.462;11.054;2023-04-06T10:01:04;98317.19;;;10.25;46.71
19447;BME280;9862;49.462;11.054;2023-04-06T10:03:36;98329.25;;;10.28;47.72
19447;BME280;9862;49.462;11.054;2023-04-06T10:06:11;98316.19;;;10.40;47.73
19447;BME280;9862;49.462;11.054;2023-04-06T10:08:40;98313.59;;;10.53;47.34
19447;BME280;9862;49.462;11.054;2023-04-06T10:11:07;98310.53;;;10.63;47.27
19447;BME280;9862;49.462;11.054;2023-04-06T10:13:36;98317.31;;;10.72;47.86
19447;BME280;9862;49.462;11.054;2023-04-06T10:16:03;98317.31;;;10.78;46.91
19447;BME280;9862;49.462;11.054;2023-04-06T10:18:31;98315.25;;;10.80;47.60
19447;BME280;9862;49.462;11.054;2023-04-06T10:21:01;98309.53;;;10.83;45.96
19447;BME280;9862;49.462;11.054;2023-04-06T10:23:33;98311.97;;;10.78;46.71
19447;BME280;9862;49.462;11.054;2023-04-06T10:26:01;98308.31;;;10.99;45.07
19447;BME280;9862;49.462;11.054;2023-04-06T10:28:31;98297.41;;;10.61;44.88
19447;BME280;9862;49.462;11.054;2023-04-06T10:31:02;98297.22;;;10.56;45.68
19447;BME280;9862;49.462;11.054;2023-04-06T10:33:30;98305.59;;;10.53;44.89
19447;BME280;9862;49.462;11.054;2023-04-06T10:35:57;98298.03;;;10.56;44.79
19447;BME280;9862;49.462;11.054;2023-04-06T10:38:33;98302.16;;;10.66;46.04
19447;BME280;9862;49.462;11.054;2023-04-06T10:41:03;98298.28;;;10.81;45.55
19447;BME280;9862;49.462;11.054;2023-04-06T10:43:33;98291.75;;;10.91;44.59
19447;BME280;9862;49.462;11.054;2023-04-06T10:46:02;98293.97;;;10.87;46.08
19447;BME280;9862;49.462;11.054;2023-04-06T10:48:36;98285.38;;;10.85;47.11
19447;BME280;9862;49.462;11.054;2023-04-06T10:51:07;98285.56;;;10.97;47.31
19447;BME280;9862;49.462;11.054;2023-04-06T10:53:34;98272.28;;;11.10;44.88
19447;BME280;9862;49.462;11.054;2023-04-06T10:56:02;98280.47;;;11.22;45.49
19447;BME280;9862;49.462;11.054;2023-04-06T10:58:29;98277.59;;;11.23;43.07
19447;BME280;9862;49.462;11.054;2023-04-06T11:00:56;98277.16;;;11.33;42.45
19447;BME280;9862;49.462;11.054;2023-04-06T11:03:25;98276.34;;;11.19;41.61
19447;BME280;9862;49.462;11.054;2023-04-06T11:05:52;98271.66;;;10.88;41.80
19447;BME280;9862;49.462;11.054;2023-04-06T11:08:23;98263.03;;;10.66;43.28
19447;BME280;9862;49.462;11.054;2023-04-06T11:10:50;98270.63;;;10.82;42.62
19447;BME280;9862;49.462;11.054;2023-04-06T11:13:16;98270.63;;;10.89;42.94
19447;BME280;9862;49.462;11.054;2023-04-06T11:15:43;98261.00;;;11.01;42.97
19447;BME280;9862;49.462;11.054;2023-04-06T11:18:10;98255.69;;;11.01;42.89
19447;BME280;9862;49.462;11.054;2023-04-06T11:20:38;98250.78;;;10.92;42.71
19447;BME280;9862;49.462;11.054;2023-04-06T11:23:04;98256.69;;;10.67;43.89
19447;BME280;9862;49.462;11.054;2023-04-06T11:25:31;98247.47;;;10.70;44.01
19447;BME280;9862;49.462;11.054;2023-04-06T11:27:58;98248.69;;;10.80;44.20
19447;BME280;9862;49.462;11.054;2023-04-06T11:30:25;98245.22;;;11.00;44.69
19447;BME280;9862;49.462;11.054;2023-04-06T11:32:51;98243.56;;;11.32;44.49
19447;BME280;9862;49.462;11.054;2023-04-06T11:35:22;98241.88;;;11.37;42.67
19447;BME280;9862;49.462;11.054;2023-04-06T11:37:50;98246.84;;;11.14;42.90
19447;BME280;9862;49.462;11.054;2023-04-06T11:40:21;98241.09;;;11.17;43.41
19447;BME280;9862;49.462;11.054;2023-04-06T11:42:52;98239.22;;;11.37;42.61
19447;BME280;9862;49.462;11.054;2023-04-06T11:45:19;98238.19;;;11.38;41.08
19447;BME280;9862;49.462;11.054;2023-04-06T11:47:55;98241.91;;;11.24;41.06
19447;BME280;9862;49.462;11.054;2023-04-06T11:50:22;98238.84;;;11.27;41.95
19447;BME280;9862;49.462;11.054;2023-04-06T11:52:59;98235.34;;;11.40;40.44
19447;BME280;9862;49.462;11.054;2023-04-06T11:55:26;98224.25;;;11.36;40.29
19447;BME280;9862;49.462;11.054;2023-04-06T11:57:53;98225.50;;;11.40;42.05
19447;BME280;9862;49.462;11.054;2023-04-06T12:00:21;98229.31;;;11.58;39.84
19447;BME280;9862;49.462;11.054;2023-04-06T12:02:48;98225.28;;;11.49;40.62
19447;BME280;9862;49.462;11.054;2023-04-06T12:05:15;98222.19;;;11.58;39.65
19447;BME280;9862;49.462;11.054;2023-04-06T12:07:42;98208.19;;;11.63;39.26
19447;BME280;9862;49.462;11.054;2023-04-06T12:10:10;98222.56;;;11.68;39.04
19447;BME280;9862;49.462;11.054;2023-04-06T12:12:36;98210.19;;;11.87;40.15
19447;BME280;9862;49.462;11.054;2023-04-06T12:15:03;98202.59;;;11.84;41.26
19447;BME280;9862;49.462;11.054;2023-04-06T12:17:30;98202.28;;;12.06;39.76
19447;BME280;9862;49.462;11.054;2023-04-06T12:19:57;98212.25;;;11.79;40.08
19447;BME280;9862;49.462;11.054;2023-04-06T12:22:23;98216.78;;;11.78;39.81
19447;BME280;9862;49.462;11.054;2023-04-06T12:24:50;98207.56;;;11.67;40.66
19447;BME280;9862;49.462;11.054;2023-04-06T12:27:18;98210.41;;;11.79;41.48
19447;BME280;9862;49.462;11.054;2023-04-06T12:29:44;98198.66;;;11.93;39.92
19447;BME280;9862;49.462;11.054;2023-04-06T12:32:11;98199.69;;;11.92;41.58
19447;BME280;9862;49.462;11.054;2023-04-06T12:34:38;98196.53;;;12.09;40.05
19447;BME280;9862;49.462;11.054;2023-04-06T12:37:04;98192.81;;;12.16;39.87
19447;BME280;9862;49.462;11.054;2023-04-06T12:39:31;98189.69;;;12.19;40.94
19447;BME280;9862;49.462;11.054;2023-04-06T12:41:57;98185.41;;;12.18;40.75
19447;BME280;9862;49.462;11.054;2023-04-06T12:44:25;98191.47;;;12.32;40.63
19447;BME280;9862;49.462;11.054;2023-04-06T12:46:52;98182.75;;;12.43;39.23
19447;BME280;9862;49.462;11.054;2023-04-06T12:49:18;98181.31;;;12.47;39.75
19447;BME280;9862;49.462;11.054;2023-04-06T12:51:45;98175.25;;;12.58;38.63
19447;BME280;9862;49.462;11.054;2023-04-06T12:54:12;98177.13;;;12.58;39.72
19447;BME280;9862;49.462;11.054;2023-04-06T12:56:38;98177.47;;;12.61;40.61
19447;BME280;9862;49.462;11.054;2023-04-06T12:59:05;98172.47;;;12.72;40.32
19447;BME280;9862;49.462;11.054;2023-04-06T13:01:33;98177.81;;;12.97;37.97
19447;BME280;9862;49.462;11.054;2023-04-06T13:03:59;98169.38;;;12.93;36.55
19447;BME280;9862;49.462;11.054;2023-04-06T13:06:26;98168.16;;;12.71;37.76
19447;BME280;9862;49.462;11.054;2023-04-06T13:08:54;98176.25;;;12.32;37.87